KPVC

Provincetown Municipal Airport

Provincetown, Massachusetts, USA
METAR KPVC 221756Z AUTO 31016G22KT 10SM CLR M04/M12 A3047 RMK AO2 PK WND 32026/1738 SLP318 T10391122 11039 21100 51006 FZRANO
Observed Flight Rules
Jan-22 @ 17:56 UTC (58 minutes ago) Visual Flight Rules
Wind Visibility Clouds
310° at 16 knots
 Gusting to 22 knots
10 miles
  • Clear skies
Temperatures Readings
Current -4°C / 25°F
Dewpoint -12°C / 10°F
Humidity 54%
Altimeter 30.47" Hg
Pressure 1031.8 hPa
Elevation 2
METAR KPVC 221756Z AUTO 31016G22KT 10SM CLR M04/M12 A3047 RMK AO2 PK WND 32026/1738 SLP318 T10391122 11039 21100 51006 FZRANO
Observed Flight Rules
Jan-22 @ 17:56 UTC
(58 minutes ago)
VFR
Wind Visibility
310° at 16 knots
 Gusting to 22 knots
10 miles
Clouds
  • Clear skies
Temperature Dewpoint
-4°C / 25°F -12°C / 10°F
Humidity Altimeter Pressure
54% 30.47" Hg 1031.8 hPa